Time;durP1;ratioP1;P1;durP2;ratioP2;P2;SDS_P1;SDS_P2;PMS_P1;PMS_P2;Temp;Humidity;BMP_temperature;BMP_pressure;BME280_temperature;BME280_humidity;BME280_pressure;Samples;Min_cycle;Max_cycle;Signal;HPM_P1;HPM_P2
2022/01/28 00:00:49;;;;;;;11.90;7.72;;;;;;;;;;5024263;28;20029;-53
2022/01/28 00:03:15;;;;;;;;;;;;;;;;;;5024629;28;20033;-52
2022/01/28 00:05:41;;;;;;;12.45;8.25;;;;;;;;;;5023764;28;19952;-53
2022/01/28 00:08:06;;;;;;;11.17;7.93;;;;;;;;;;5024195;28;20035;-53
2022/01/28 00:10:32;;;;;;;12.02;8.15;;;;;;;;;;5024313;28;20268;-51
2022/01/28 00:38:05;;;;;;;11.82;8.63;;;;;;;;;;5023634;28;20463;-52
2022/01/28 00:40:30;;;;;;;12.35;8.48;;;;;;;;;;5014232;28;20034;-55
2022/01/28 00:42:55;;;;;;;13.73;8.52;;;;;;;;;;5005998;28;20093;-52
2022/01/28 00:45:21;;;;;;;13.77;8.75;;;;;;;;;;5020641;28;20496;-53
2022/01/28 00:47:47;;;;;;;13.27;8.18;;;;;;;;;;5023306;28;20021;-55
2022/01/28 00:50:12;;;;;;;12.93;8.60;;;;;;;;;;5023078;28;20021;-55
2022/01/28 00:52:37;;;;;;;13.00;8.25;;;;;;;;;;5023073;28;20739;-52
2022/01/28 00:55:03;;;;;;;11.17;7.80;;;;;;;;;;5037780;28;20037;-52
2022/01/28 00:57:28;;;;;;;12.88;8.43;;;;;;;;;;5033709;28;21261;-52
2022/01/28 00:59:53;;;;;;;12.05;8.20;;;;;;;;;;5023022;28;20518;-52
2022/01/28 01:02:18;;;;;;;12.27;8.88;;;;;;;;;;5022702;28;20033;-53
2022/01/28 01:04:44;;;;;;;12.43;8.57;;;;;;;;;;5022816;28;20029;-53
2022/01/28 01:07:09;;;;;;;12.23;8.32;;;;;;;;;;5022248;28;20307;-52
2022/01/28 01:09:35;;;;;;;11.63;7.85;;;;;;;;;;5022847;28;20048;-52
2022/01/28 01:12:00;;;;;;;12.18;8.18;;;;;;;;;;5023201;28;20026;-53
2022/01/28 01:14:25;;;;;;;12.23;8.30;;;;;;;;;;5013725;28;20025;-52
2022/01/28 01:19:24;;;;;;;12.88;8.93;;;;;;;;;;5023398;28;20287;-52
2022/01/28 01:21:55;;;;;;;12.00;8.23;;;;;;;;;;5036437;28;20017;-52
2022/01/28 01:24:24;;;;;;;12.98;8.65;;;;;;;;;;5022265;28;20033;-52
2022/01/28 01:26:49;;;;;;;12.75;8.70;;;;;;;;;;5022262;28;20061;-52
2022/01/28 01:29:18;;;;;;;12.50;8.27;;;;;;;;;;5022497;28;20068;-51
2022/01/28 01:31:43;;;;;;;14.20;8.95;;;;;;;;;;5022213;28;20014;-52
2022/01/28 01:34:15;;;;;;;13.18;8.88;;;;;;;;;;5022341;28;20617;-53
2022/01/28 01:36:41;;;;;;;12.30;7.95;;;;;;;;;;5021284;28;21298;-53
2022/01/28 01:39:08;;;;;;;13.90;9.00;;;;;;;;;;5022380;28;20386;-54
2022/01/28 01:41:38;;;;;;;13.30;9.18;;;;;;;;;;5022023;28;20022;-53
2022/01/28 01:47:11;;;;;;;13.68;9.07;;;;;;;;;;5022554;28;20037;-53
2022/01/28 01:52:13;;;;;;;11.35;8.38;;;;;;;;;;5022009;28;20451;-53
2022/01/28 01:54:39;;;;;;;11.83;8.80;;;;;;;;;;5022255;28;20267;-53
2022/01/28 01:57:05;;;;;;;13.25;9.02;;;;;;;;;;5022048;28;20651;-53
2022/01/28 01:59:30;;;;;;;13.50;8.93;;;;;;;;;;5021912;28;20022;-54
2022/01/28 02:01:56;;;;;;;13.27;8.43;;;;;;;;;;5022394;28;20017;-53
2022/01/28 02:04:21;;;;;;;13.30;8.65;;;;;;;;;;5021850;28;20263;-54
2022/01/28 02:06:46;;;;;;;13.03;9.03;;;;;;;;;;5021663;28;20056;-53
2022/01/28 02:09:12;;;;;;;12.97;8.53;;;;;;;;;;5022119;28;20287;-53
2022/01/28 02:11:39;;;;;;;12.70;8.75;;;;;;;;;;5021798;28;20276;-53
2022/01/28 02:14:04;;;;;;;13.20;8.82;;;;;;;;;;5021771;28;20109;-52
2022/01/28 02:16:29;;;;;;;13.27;8.68;;;;;;;;;;5022112;28;20163;-52
2022/01/28 02:18:56;;;;;;;12.50;8.53;;;;;;;;;;5022040;28;20021;-53
2022/01/28 02:21:21;;;;;;;12.10;9.13;;;;;;;;;;5021700;28;20033;-52
2022/01/28 02:23:51;;;;;;;13.20;8.70;;;;;;;;;;5021864;28;20024;-51
2022/01/28 02:26:17;;;;;;;13.05;9.05;;;;;;;;;;5021751;28;20323;-53
2022/01/28 02:28:45;;;;;;;14.10;9.45;;;;;;;;;;5025148;28;20669;-53
2022/01/28 02:31:10;;;;;;;12.73;8.88;;;;;;;;;;5025671;28;20090;-53
2022/01/28 02:33:35;;;;;;;13.30;8.57;;;;;;;;;;5025344;28;20029;-53
2022/01/28 02:36:06;;;;;;;13.73;9.10;;;;;;;;;;5025922;28;20027;-53
2022/01/28 02:38:31;;;;;;;12.60;8.70;;;;;;;;;;5025747;28;20291;-54
2022/01/28 02:41:00;;;;;;;13.23;8.73;;;;;;;;;;5025813;28;20517;-52
2022/01/28 02:46:18;;;;;;;13.60;9.18;;;;;;;;;;5025642;28;20037;-53
2022/01/28 02:49:04;;;;;;;12.77;8.77;;;;;;;;;;5025600;28;20091;-53
2022/01/28 02:51:30;;;;;;;12.93;8.77;;;;;;;;;;5025124;28;20419;-52
2022/01/28 02:53:58;;;;;;;12.85;8.80;;;;;;;;;;5025129;28;20021;-53
2022/01/28 02:56:34;;;;;;;13.98;9.10;;;;;;;;;;5025189;28;20466;-53
2022/01/28 02:59:00;;;;;;;12.98;8.70;;;;;;;;;;5025355;28;20025;-52
2022/01/28 03:01:25;;;;;;;14.67;9.47;;;;;;;;;;5025065;28;20543;-52
2022/01/28 03:03:50;;;;;;;13.60;8.90;;;;;;;;;;5024939;28;20805;-53
2022/01/28 03:06:16;;;;;;;13.13;8.63;;;;;;;;;;5024814;28;20080;-52
2022/01/28 03:08:46;;;;;;;13.82;8.60;;;;;;;;;;5023736;28;20026;-53
2022/01/28 03:16:28;;;;;;;13.40;9.38;;;;;;;;;;5024947;28;20040;-53
2022/01/28 03:21:55;;;;;;;11.88;8.60;;;;;;;;;;5019727;28;20124;-52
2022/01/28 03:24:21;;;;;;;12.63;9.00;;;;;;;;;;5024782;28;20028;-52
2022/01/28 03:26:51;;;;;;;13.13;9.02;;;;;;;;;;5024631;28;20038;-53
2022/01/28 03:29:17;;;;;;;13.35;8.98;;;;;;;;;;5024840;28;20116;-53
2022/01/28 03:31:42;;;;;;;13.15;9.30;;;;;;;;;;5024416;28;20527;-53
2022/01/28 03:34:07;;;;;;;11.90;8.17;;;;;;;;;;5024486;28;20026;-52
2022/01/28 03:36:32;;;;;;;12.90;9.15;;;;;;;;;;5024596;28;20291;-53
2022/01/28 03:38:58;;;;;;;14.63;9.18;;;;;;;;;;5023981;28;20103;-53
2022/01/28 03:41:24;;;;;;;13.73;9.30;;;;;;;;;;5024234;28;20484;-53
2022/01/28 03:43:50;;;;;;;13.43;9.00;;;;;;;;;;5024396;28;20649;-53
2022/01/28 03:46:15;;;;;;;14.43;8.93;;;;;;;;;;5024297;28;20033;-53
2022/01/28 03:48:40;;;;;;;15.18;9.60;;;;;;;;;;5024284;28;20301;-53
2022/01/28 03:51:05;;;;;;;12.73;8.32;;;;;;;;;;5024200;28;20025;-51
2022/01/28 03:53:31;;;;;;;13.35;8.98;;;;;;;;;;5023719;28;20053;-53
2022/01/28 03:55:58;;;;;;;12.48;8.85;;;;;;;;;;5024209;28;20021;-53
2022/01/28 03:58:23;;;;;;;12.23;8.50;;;;;;;;;;5024480;28;20029;-52
2022/01/28 04:00:49;;;;;;;13.65;9.00;;;;;;;;;;5024263;28;20021;-52
2022/01/28 04:13:55;;;;;;;11.20;8.35;;;;;;;;;;5023934;28;20064;-52
2022/01/28 04:18:46;;;;;;;13.45;8.77;;;;;;;;;;5023968;28;20025;-52
2022/01/28 04:21:11;;;;;;;12.25;8.60;;;;;;;;;;5023916;28;20029;-52
2022/01/28 04:23:36;;;;;;;12.10;8.40;;;;;;;;;;5023158;28;20021;-52
2022/01/28 04:26:02;;;;;;;12.97;8.43;;;;;;;;;;5023410;28;20288;-51
2022/01/28 04:28:27;;;;;;;13.97;9.07;;;;;;;;;;5023527;28;20272;-52
2022/01/28 04:30:52;;;;;;;12.30;8.67;;;;;;;;;;5023476;28;20256;-52
2022/01/28 04:33:17;;;;;;;12.70;8.27;;;;;;;;;;5023564;28;20319;-53
2022/01/28 04:35:46;;;;;;;11.53;8.57;;;;;;;;;;5025862;28;23803;-51
2022/01/28 04:40:45;;;;;;;11.10;7.83;;;;;;;;;;5043355;28;20024;-52
2022/01/28 04:43:20;;;;;;;13.98;8.45;;;;;;;;;;5028458;28;20072;-52
2022/01/28 04:59:33;;;;;;;10.85;7.82;;;;;;;;;;5023036;28;20510;-52
2022/01/28 05:06:55;;;;;;;12.07;7.47;;;;;;;;;;5022811;28;20410;-53
2022/01/28 05:27:14;;;;;;;11.82;7.57;;;;;;;;;;5022520;28;20047;-54
2022/01/28 05:29:39;;;;;;;10.18;7.05;;;;;;;;;;5021162;28;20412;-52
2022/01/28 05:32:05;;;;;;;11.00;7.38;;;;;;;;;;5022309;28;20031;-51
2022/01/28 05:34:30;;;;;;;11.88;7.35;;;;;;;;;;5022504;28;20442;-53
2022/01/28 05:36:56;;;;;;;11.35;7.15;;;;;;;;;;5022519;28;20503;-53
2022/01/28 05:39:21;;;;;;;9.90;6.90;;;;;;;;;;5022648;28;20630;-52
2022/01/28 05:41:46;;;;;;;10.32;6.80;;;;;;;;;;5022064;28;20274;-52
2022/01/28 05:44:11;;;;;;;9.82;6.68;;;;;;;;;;5022207;28;20017;-53
2022/01/28 05:46:37;;;;;;;10.37;7.27;;;;;;;;;;5022246;28;20037;-55
2022/01/28 05:49:02;;;;;;;11.57;7.35;;;;;;;;;;5022212;28;20268;-52
2022/01/28 05:51:27;;;;;;;10.48;7.13;;;;;;;;;;5021889;28;20478;-52
2022/01/28 05:53:58;;;;;;;10.13;6.60;;;;;;;;;;5022238;28;20465;-52
2022/01/28 05:56:23;;;;;;;;;;;;;;;;;;5022301;28;20028;-52
2022/01/28 05:58:48;;;;;;;10.77;6.82;;;;;;;;;;5022154;28;19912;-51
2022/01/28 06:01:13;;;;;;;9.83;6.70;;;;;;;;;;5021721;28;20476;-53
2022/01/28 06:03:39;;;;;;;9.90;6.60;;;;;;;;;;5021546;28;20558;-52
2022/01/28 06:06:04;;;;;;;9.35;7.05;;;;;;;;;;5021791;28;20291;-52
2022/01/28 06:08:29;;;;;;;9.73;6.73;;;;;;;;;;5021917;28;20033;-53
2022/01/28 06:10:55;;;;;;;8.73;6.40;;;;;;;;;;5022208;28;20297;-52
2022/01/28 06:13:20;;;;;;;10.53;6.70;;;;;;;;;;5021591;28;20281;-53
2022/01/28 06:15:45;;;;;;;9.30;6.53;;;;;;;;;;5021468;28;20271;-52
2022/01/28 06:18:10;;;;;;;9.43;6.50;;;;;;;;;;5021937;28;20018;-54
2022/01/28 06:20:36;;;;;;;9.63;6.88;;;;;;;;;;5021914;28;20272;-52
2022/01/28 06:23:01;;;;;;;9.15;6.20;;;;;;;;;;5021900;28;20404;-54
2022/01/28 06:25:26;;;;;;;10.65;6.93;;;;;;;;;;5021909;28;20443;-52
2022/01/28 06:27:51;;;;;;;9.90;6.23;;;;;;;;;;5021593;28;20482;-52
2022/01/28 06:30:18;;;;;;;8.90;6.07;;;;;;;;;;5021708;28;20635;-54
2022/01/28 06:32:44;;;;;;;9.95;6.55;;;;;;;;;;5021534;28;20273;-54
2022/01/28 06:35:09;;;;;;;9.55;6.30;;;;;;;;;;5020238;28;20021;-53
2022/01/28 06:37:37;;;;;;;9.32;6.10;;;;;;;;;;5019107;28;20057;-53
2022/01/28 06:40:04;;;;;;;10.13;6.47;;;;;;;;;;5020484;28;20049;-54
2022/01/28 06:42:29;;;;;;;8.95;6.68;;;;;;;;;;5020442;28;20013;-53
2022/01/28 06:44:54;;;;;;;9.57;6.33;;;;;;;;;;5021070;28;20036;-50
2022/01/28 06:47:20;;;;;;;9.07;6.30;;;;;;;;;;5020797;28;20296;-52
2022/01/28 06:49:45;;;;;;;9.07;5.93;;;;;;;;;;5017891;28;20631;-52
2022/01/28 06:52:10;;;;;;;9.82;5.75;;;;;;;;;;5010520;28;20117;-52
2022/01/28 06:54:36;;;;;;;8.75;6.32;;;;;;;;;;5012213;28;20024;-52
2022/01/28 06:57:01;;;;;;;9.37;6.10;;;;;;;;;;5016588;28;20022;-53
2022/01/28 06:59:26;;;;;;;8.97;5.67;;;;;;;;;;5020950;28;20371;-52
2022/01/28 07:01:53;;;;;;;9.27;5.77;;;;;;;;;;5019476;28;20291;-55
2022/01/28 07:04:19;;;;;;;8.90;6.10;;;;;;;;;;5021444;28;20268;-54
2022/01/28 07:06:45;;;;;;;8.68;5.90;;;;;;;;;;5021285;28;20122;-52
2022/01/28 07:09:10;;;;;;;9.77;6.05;;;;;;;;;;5021269;28;20034;-54
2022/01/28 07:11:35;;;;;;;8.10;5.85;;;;;;;;;;5021222;28;20418;-53
2022/01/28 07:14:01;;;;;;;7.63;5.40;;;;;;;;;;5023238;28;20036;-53
2022/01/28 07:16:27;;;;;;;8.77;6.27;;;;;;;;;;5024457;28;20017;-52
2022/01/28 07:18:52;;;;;;;9.00;5.97;;;;;;;;;;5016894;28;20268;-52
2022/01/28 07:21:17;;;;;;;8.47;6.23;;;;;;;;;;5006743;28;20030;-52
2022/01/28 07:23:42;;;;;;;8.40;5.67;;;;;;;;;;5023779;28;20347;-52
2022/01/28 07:26:08;;;;;;;8.93;5.95;;;;;;;;;;5024875;28;20175;-53
2022/01/28 07:28:35;;;;;;;8.37;5.83;;;;;;;;;;5024673;28;20029;-52
2022/01/28 07:31:00;;;;;;;8.27;5.88;;;;;;;;;;5024435;28;20334;-52
2022/01/28 07:33:25;;;;;;;8.38;5.85;;;;;;;;;;5024393;28;20076;-53
2022/01/28 07:35:50;;;;;;;8.90;5.90;;;;;;;;;;5021715;28;20033;-52
2022/01/28 07:38:15;;;;;;;8.97;5.77;;;;;;;;;;5010889;28;20615;-54
2022/01/28 07:40:41;;;;;;;9.43;6.27;;;;;;;;;;5024583;28;20878;-53
2022/01/28 07:43:06;;;;;;;9.43;5.80;;;;;;;;;;5024264;28;20268;-55
2022/01/28 07:45:31;;;;;;;10.47;6.23;;;;;;;;;;5024110;28;20025;-54
2022/01/28 07:47:56;;;;;;;9.03;6.13;;;;;;;;;;5027819;28;20287;-53
2022/01/28 07:50:22;;;;;;;8.90;6.03;;;;;;;;;;5037065;28;20029;-53
2022/01/28 07:52:47;;;;;;;10.43;6.00;;;;;;;;;;5022955;28;20280;-54
2022/01/28 07:55:13;;;;;;;9.00;6.07;;;;;;;;;;5024210;28;20452;-54
2022/01/28 07:57:39;;;;;;;8.80;5.90;;;;;;;;;;5023876;28;20343;-53
2022/01/28 08:00:05;;;;;;;8.73;5.70;;;;;;;;;;5024400;28;20033;-53
2022/01/28 08:02:30;;;;;;;11.55;6.07;;;;;;;;;;5023438;28;20028;-53
2022/01/28 08:04:55;;;;;;;9.27;5.63;;;;;;;;;;5023446;28;20466;-53
2022/01/28 08:07:22;;;;;;;10.33;5.83;;;;;;;;;;5023894;28;20064;-53
2022/01/28 08:09:47;;;;;;;10.27;6.43;;;;;;;;;;5023232;28;20053;-53
2022/01/28 08:12:12;;;;;;;8.80;5.90;;;;;;;;;;5021749;28;20056;-52
2022/01/28 08:14:38;;;;;;;7.63;5.57;;;;;;;;;;5023010;28;20322;-53
2022/01/28 08:17:03;;;;;;;9.05;5.72;;;;;;;;;;5023233;28;20020;-55
2022/01/28 08:19:28;;;;;;;8.45;5.90;;;;;;;;;;5023354;28;20021;-53
2022/01/28 08:21:53;;;;;;;8.93;5.57;;;;;;;;;;5023034;28;20099;-50
2022/01/28 08:24:19;;;;;;;8.05;5.63;;;;;;;;;;5022852;28;20026;-52
2022/01/28 08:26:44;;;;;;;9.18;5.78;;;;;;;;;;5010270;28;20113;-52
2022/01/28 08:29:09;;;;;;;10.40;6.05;;;;;;;;;;5006851;28;20029;-51
2022/01/28 08:31:35;;;;;;;9.13;6.35;;;;;;;;;;5004246;28;20452;-51
2022/01/28 08:34:01;;;;;;;8.93;5.85;;;;;;;;;;5022169;28;20022;-53
2022/01/28 08:36:26;;;;;;;7.93;5.25;;;;;;;;;;5023465;28;20462;-54
2022/01/28 08:38:54;;;;;;;8.80;5.80;;;;;;;;;;5023576;28;20021;-53
2022/01/28 08:41:19;;;;;;;10.07;5.70;;;;;;;;;;5037757;28;20550;-52
2022/01/28 08:43:45;;;;;;;9.68;6.05;;;;;;;;;;5024710;28;20060;-54
2022/01/28 08:46:10;;;;;;;10.27;5.73;;;;;;;;;;5022969;28;20038;-53
2022/01/28 08:48:35;;;;;;;8.45;5.97;;;;;;;;;;5023330;28;20291;-52
2022/01/28 08:51:00;;;;;;;8.97;6.20;;;;;;;;;;5023045;28;20020;-53
2022/01/28 08:53:26;;;;;;;8.97;6.13;;;;;;;;;;5023012;28;20036;-53
2022/01/28 08:55:51;;;;;;;8.80;5.63;;;;;;;;;;5012151;28;20105;-52
2022/01/28 08:58:16;;;;;;;8.82;6.22;;;;;;;;;;5021761;28;21276;-52
2022/01/28 09:00:45;;;;;;;10.07;6.13;;;;;;;;;;5023297;28;20026;-52
2022/01/28 09:03:11;;;;;;;9.50;6.07;;;;;;;;;;5012745;28;20108;-54
2022/01/28 09:05:36;;;;;;;9.32;6.10;;;;;;;;;;5019159;28;20152;-54
2022/01/28 09:08:07;;;;;;;9.80;5.80;;;;;;;;;;5022996;28;20049;-52
2022/01/28 09:10:32;;;;;;;9.48;6.00;;;;;;;;;;5022802;28;20025;-53
2022/01/28 09:15:29;;;;;;;10.15;6.32;;;;;;;;;;5022682;28;20028;-52
2022/01/28 09:17:54;;;;;;;9.50;6.15;;;;;;;;;;5017610;28;20034;-52
2022/01/28 09:20:19;;;;;;;9.47;6.10;;;;;;;;;;5004386;28;20452;-54
2022/01/28 09:22:44;;;;;;;10.25;6.07;;;;;;;;;;5015878;28;20029;-52
2022/01/28 09:25:10;;;;;;;9.20;5.90;;;;;;;;;;5022065;28;20586;-53
2022/01/28 09:27:35;;;;;;;9.00;6.13;;;;;;;;;;5020292;28;20503;-53
2022/01/28 09:30:00;;;;;;;9.93;6.47;;;;;;;;;;5021852;28;20522;-52
2022/01/28 09:32:25;;;;;;;8.57;5.90;;;;;;;;;;5022409;28;20526;-55
2022/01/28 09:34:51;;;;;;;10.93;6.00;;;;;;;;;;5022555;28;20272;-53
2022/01/28 09:37:16;;;;;;;9.13;6.10;;;;;;;;;;5020982;28;20680;-53
2022/01/28 09:39:45;;;;;;;10.63;6.60;;;;;;;;;;5022051;28;20028;-54
2022/01/28 09:42:15;;;;;;;12.53;6.70;;;;;;;;;;5022145;28;20108;-53
2022/01/28 09:44:40;;;;;;;8.52;5.82;;;;;;;;;;5022082;28;20030;-52
2022/01/28 09:47:06;;;;;;;9.25;5.88;;;;;;;;;;5022132;28;20115;-53
2022/01/28 09:49:31;;;;;;;10.48;6.60;;;;;;;;;;5020192;28;20104;-53
2022/01/28 09:51:56;;;;;;;9.73;6.10;;;;;;;;;;5021987;28;20568;-52
2022/01/28 09:54:22;;;;;;;8.93;6.00;;;;;;;;;;5021929;28;20737;-52
2022/01/28 09:56:47;;;;;;;10.70;6.30;;;;;;;;;;5021396;28;20282;-53
2022/01/28 09:59:12;;;;;;;10.27;7.00;;;;;;;;;;5021554;28;20272;-52
2022/01/28 10:01:50;;;;;;;9.27;6.30;;;;;;;;;;5021707;28;20811;-53
2022/01/28 10:04:17;;;;;;;8.88;6.03;;;;;;;;;;5020699;28;20104;-52
2022/01/28 10:06:43;;;;;;;8.98;6.43;;;;;;;;;;5021940;28;20080;-52
2022/01/28 10:09:08;;;;;;;9.20;6.13;;;;;;;;;;5021607;28;20056;-51
2022/01/28 10:11:35;;;;;;;10.23;5.95;;;;;;;;;;5021165;28;20470;-52
2022/01/28 10:14:06;;;;;;;9.02;6.30;;;;;;;;;;5024504;28;20045;-52
2022/01/28 10:16:32;;;;;;;9.00;6.47;;;;;;;;;;5041831;28;20098;-51
2022/01/28 10:18:58;;;;;;;9.97;6.70;;;;;;;;;;5041746;28;20483;-52
2022/01/28 10:21:23;;;;;;;10.25;6.63;;;;;;;;;;5037781;28;20276;-52
2022/01/28 10:24:00;;;;;;;9.10;6.60;;;;;;;;;;5021317;28;20029;-52
2022/01/28 10:26:29;;;;;;;9.32;6.70;;;;;;;;;;5021942;28;20787;-53
2022/01/28 10:28:54;;;;;;;10.77;7.00;;;;;;;;;;5021262;28;20412;-53
2022/01/28 10:31:20;;;;;;;10.27;6.82;;;;;;;;;;5021505;28;20040;-52
2022/01/28 10:33:45;;;;;;;9.60;6.77;;;;;;;;;;5021066;28;20432;-53
2022/01/28 10:36:10;;;;;;;9.70;6.60;;;;;;;;;;5019569;28;20025;-51
2022/01/28 10:38:36;;;;;;;10.07;6.90;;;;;;;;;;5021946;28;20025;-53
2022/01/28 10:41:11;;;;;;;11.48;6.82;;;;;;;;;;5021580;28;20091;-54
2022/01/28 10:43:46;;;;;;;10.27;6.50;;;;;;;;;;5020959;28;20025;-53
2022/01/28 10:46:12;;;;;;;9.90;6.75;;;;;;;;;;5006200;28;20030;-54
2022/01/28 10:48:50;;;;;;;10.43;7.05;;;;;;;;;;5021447;28;20442;-53
2022/01/28 10:51:17;;;;;;;9.73;6.38;;;;;;;;;;5023764;28;20073;-52
2022/01/28 10:53:42;;;;;;;10.48;7.25;;;;;;;;;;5025065;28;20021;-52
2022/01/28 10:56:10;;;;;;;9.57;6.93;;;;;;;;;;5025642;28;20018;-52
2022/01/28 10:58:36;;;;;;;10.20;7.03;;;;;;;;;;5022144;28;20510;-52
2022/01/28 11:01:02;;;;;;;10.75;6.80;;;;;;;;;;5015642;28;21996;-52
2022/01/28 11:03:27;;;;;;;10.80;7.43;;;;;;;;;;5023974;28;20729;-52
2022/01/28 11:05:58;;;;;;;10.90;7.00;;;;;;;;;;5024862;28;20053;-55
2022/01/28 11:08:24;;;;;;;11.27;7.20;;;;;;;;;;5025335;28;20575;-53
2022/01/28 11:10:49;;;;;;;11.82;7.85;;;;;;;;;;5023702;28;20101;-53
2022/01/28 11:13:14;;;;;;;10.30;6.90;;;;;;;;;;5036767;28;20033;-53
2022/01/28 11:15:39;;;;;;;11.73;7.93;;;;;;;;;;5044871;28;20009;-53
2022/01/28 11:18:05;;;;;;;13.77;7.68;;;;;;;;;;5045148;28;20351;-52
2022/01/28 11:20:32;;;;;;;11.68;7.50;;;;;;;;;;5043362;28;20079;-53
2022/01/28 11:23:00;;;;;;;11.48;7.35;;;;;;;;;;5034060;28;20045;-55
2022/01/28 11:25:30;;;;;;;9.85;7.45;;;;;;;;;;5023265;28;20090;-54
2022/01/28 11:27:55;;;;;;;11.70;7.32;;;;;;;;;;5022879;28;20049;-54
2022/01/28 11:30:22;;;;;;;11.90;7.60;;;;;;;;;;5024868;28;20029;-54
2022/01/28 11:32:54;;;;;;;11.60;7.20;;;;;;;;;;5024751;28;20151;-54
2022/01/28 11:35:20;;;;;;;11.32;7.50;;;;;;;;;;5024637;28;20017;-53
2022/01/28 11:37:45;;;;;;;9.80;7.13;;;;;;;;;;5024523;28;20295;-54
2022/01/28 11:40:11;;;;;;;10.57;7.70;;;;;;;;;;5024290;28;20403;-55
2022/01/28 11:42:37;;;;;;;12.25;7.93;;;;;;;;;;5020323;28;20265;-54
2022/01/28 11:45:06;;;;;;;11.32;7.45;;;;;;;;;;5023675;28;20014;-53
2022/01/28 11:47:35;;;;;;;9.95;7.05;;;;;;;;;;5023761;28;20029;-53
2022/01/28 11:50:05;;;;;;;11.52;7.75;;;;;;;;;;5010701;28;20033;-53
2022/01/28 11:52:42;;;;;;;11.95;7.30;;;;;;;;;;5021064;28;20025;-53
2022/01/28 11:55:16;;;;;;;10.35;7.60;;;;;;;;;;5023405;28;20022;-53
2022/01/28 11:57:54;;;;;;;9.30;7.40;;;;;;;;;;5023473;28;20017;-53
2022/01/28 12:00:19;;;;;;;12.40;7.85;;;;;;;;;;5023571;28;20028;-54
2022/01/28 12:02:45;;;;;;;12.32;7.78;;;;;;;;;;5023688;28;20092;-54
2022/01/28 12:05:15;;;;;;;11.52;7.85;;;;;;;;;;5024573;28;20478;-51
2022/01/28 12:07:40;;;;;;;11.52;8.15;;;;;;;;;;5022758;28;20041;-52
2022/01/28 12:10:07;;;;;;;11.23;7.70;;;;;;;;;;5022433;28;20030;-53
2022/01/28 12:12:42;;;;;;;11.40;7.65;;;;;;;;;;5024036;28;20522;-53
2022/01/28 12:15:16;;;;;;;11.48;7.28;;;;;;;;;;5023609;28;20052;-51
2022/01/28 12:17:42;;;;;;;11.27;8.02;;;;;;;;;;5023056;28;20056;-53
2022/01/28 12:20:22;;;;;;;10.63;7.45;;;;;;;;;;5007736;28;20025;-54
2022/01/28 12:22:59;;;;;;;11.82;8.38;;;;;;;;;;5023922;28;20032;-54
2022/01/28 12:25:37;;;;;;;11.48;7.75;;;;;;;;;;5023927;28;20117;-53
2022/01/28 12:28:20;;;;;;;11.27;8.02;;;;;;;;;;5023766;28;20051;-53
2022/01/28 12:30:46;;;;;;;11.60;8.45;;;;;;;;;;5023647;28;20032;-53
2022/01/28 12:33:12;;;;;;;11.45;8.07;;;;;;;;;;5023682;28;20051;-54
2022/01/28 12:35:37;;;;;;;11.40;7.60;;;;;;;;;;5023414;28;20400;-53
2022/01/28 12:38:04;;;;;;;9.27;7.38;;;;;;;;;;5023520;28;20331;-53
2022/01/28 12:40:35;;;;;;;12.50;7.82;;;;;;;;;;5023396;28;20413;-54
2022/01/28 12:43:01;;;;;;;10.75;7.65;;;;;;;;;;5023359;28;20040;-53
2022/01/28 12:45:26;;;;;;;11.23;7.57;;;;;;;;;;5023417;28;20025;-52
2022/01/28 12:47:51;;;;;;;10.05;7.35;;;;;;;;;;5023150;28;20484;-52
2022/01/28 12:50:17;;;;;;;12.77;8.33;;;;;;;;;;5022018;28;20198;-54
2022/01/28 12:52:44;;;;;;;10.00;7.10;;;;;;;;;;5023236;28;20039;-54
2022/01/28 12:55:09;;;;;;;11.48;8.00;;;;;;;;;;5023405;28;20507;-54
2022/01/28 12:57:40;;;;;;;10.97;7.97;;;;;;;;;;5023465;28;20026;-54
2022/01/28 13:00:06;;;;;;;13.05;8.18;;;;;;;;;;5022914;28;20260;-53
2022/01/28 13:02:34;;;;;;;12.60;7.95;;;;;;;;;;5023096;28;20402;-54
2022/01/28 13:05:12;;;;;;;10.85;8.13;;;;;;;;;;5022428;28;20049;-55
2022/01/28 13:10:23;;;;;;;9.80;7.07;;;;;;;;;;5022777;28;20137;-54
2022/01/28 13:12:48;;;;;;;10.25;7.13;;;;;;;;;;5022514;28;20116;-52
2022/01/28 13:15:14;;;;;;;10.30;7.53;;;;;;;;;;5022984;28;20033;-52
2022/01/28 13:17:39;;;;;;;10.63;7.22;;;;;;;;;;5022794;28;20550;-52
2022/01/28 13:20:06;;;;;;;10.13;7.35;;;;;;;;;;5020407;28;20033;-51
2022/01/28 13:22:31;;;;;;;12.20;7.43;;;;;;;;;;5004354;28;20033;-52
2022/01/28 13:24:56;;;;;;;10.65;7.40;;;;;;;;;;5004552;28;20073;-52
2022/01/28 13:27:22;;;;;;;10.10;7.43;;;;;;;;;;5014169;28;20034;-54
2022/01/28 13:29:51;;;;;;;9.90;7.63;;;;;;;;;;5022720;28;20084;-55
2022/01/28 13:32:19;;;;;;;9.20;7.10;;;;;;;;;;5022631;28;20104;-53
2022/01/28 13:34:48;;;;;;;10.35;7.28;;;;;;;;;;5022467;28;20111;-54
2022/01/28 13:37:33;;;;;;;10.20;6.97;;;;;;;;;;5022416;28;20056;-54
2022/01/28 13:39:58;;;;;;;8.95;7.15;;;;;;;;;;5022616;28;20414;-55
2022/01/28 13:42:23;;;;;;;9.32;7.20;;;;;;;;;;5021252;28;20088;-53
2022/01/28 13:44:49;;;;;;;9.38;6.78;;;;;;;;;;5022486;28;20029;-53
2022/01/28 13:47:16;;;;;;;9.85;6.90;;;;;;;;;;5022240;28;20033;-54
2022/01/28 13:49:41;;;;;;;9.63;6.75;;;;;;;;;;5022250;28;20407;-53
2022/01/28 13:52:31;;;;;;;9.63;6.90;;;;;;;;;;5041869;28;20025;-53
2022/01/28 13:54:56;;;;;;;8.65;6.85;;;;;;;;;;5042370;28;20028;-54
2022/01/28 13:57:26;;;;;;;10.30;7.33;;;;;;;;;;5042095;28;20177;-52
2022/01/28 13:59:51;;;;;;;;;;;;;;;;;;5042751;28;20275;-54
2022/01/28 14:02:17;;;;;;;9.73;6.82;;;;;;;;;;5038005;28;20349;-53
2022/01/28 14:04:43;;;;;;;10.05;7.13;;;;;;;;;;5022561;28;20053;-54
2022/01/28 14:07:12;;;;;;;10.05;6.78;;;;;;;;;;5022747;28;20123;-53
2022/01/28 14:09:59;;;;;;;11.40;7.33;;;;;;;;;;5022476;28;20316;-53
2022/01/28 14:12:28;;;;;;;9.63;6.63;;;;;;;;;;5012018;28;20353;-55
2022/01/28 14:14:59;;;;;;;10.25;7.00;;;;;;;;;;5022953;28;20036;-53
2022/01/28 14:17:24;;;;;;;9.30;6.60;;;;;;;;;;5022023;28;20022;-53
2022/01/28 14:19:51;;;;;;;9.03;6.63;;;;;;;;;;5020546;28;20125;-54
2022/01/28 14:22:16;;;;;;;8.27;6.35;;;;;;;;;;5022406;28;20804;-52
2022/01/28 14:24:42;;;;;;;8.70;6.30;;;;;;;;;;5026219;28;20021;-53
2022/01/28 14:32:10;;;;;;;8.82;6.25;;;;;;;;;;5026082;28;20029;-53
2022/01/28 14:34:36;;;;;;;8.07;6.05;;;;;;;;;;5026260;28;20018;-51
2022/01/28 14:37:04;;;;;;;9.25;6.57;;;;;;;;;;5027309;28;20040;-52
2022/01/28 14:39:29;;;;;;;7.78;5.97;;;;;;;;;;5026360;28;20014;-51
2022/01/28 14:42:01;;;;;;;9.13;6.10;;;;;;;;;;5024852;28;20028;-51
2022/01/28 14:44:26;;;;;;;9.02;6.28;;;;;;;;;;5026097;28;20337;-52
2022/01/28 14:46:52;;;;;;;8.67;6.10;;;;;;;;;;5025635;28;20163;-52
2022/01/28 14:49:17;;;;;;;8.15;6.35;;;;;;;;;;5025902;28;20095;-52
2022/01/28 14:51:50;;;;;;;9.07;6.37;;;;;;;;;;5025501;28;20559;-52
2022/01/28 14:54:15;;;;;;;8.68;6.90;;;;;;;;;;5025341;28;20816;-51
2022/01/28 14:56:40;;;;;;;8.50;6.00;;;;;;;;;;5023980;28;20025;-51
2022/01/28 14:59:05;;;;;;;8.90;5.87;;;;;;;;;;5025148;28;20828;-51
2022/01/28 15:01:31;;;;;;;8.07;6.00;;;;;;;;;;5025505;28;20456;-51
2022/01/28 15:03:58;;;;;;;8.77;6.05;;;;;;;;;;5025093;28;20487;-50
2022/01/28 15:06:23;;;;;;;9.40;6.10;;;;;;;;;;5024831;28;20615;-51
2022/01/28 15:08:50;;;;;;;7.50;5.57;;;;;;;;;;5025082;28;20025;-51
2022/01/28 15:11:23;;;;;;;8.82;6.07;;;;;;;;;;5025026;28;20337;-51
2022/01/28 15:13:48;;;;;;;8.02;6.10;;;;;;;;;;5024687;28;20052;-51
2022/01/28 15:16:16;;;;;;;8.80;6.50;;;;;;;;;;5024881;28;20041;-52
2022/01/28 15:18:41;;;;;;;8.07;6.28;;;;;;;;;;5025005;28;20308;-52
2022/01/28 15:21:06;;;;;;;7.53;5.53;;;;;;;;;;5024998;28;20056;-53
2022/01/28 15:23:32;;;;;;;8.27;5.97;;;;;;;;;;5024596;28;20060;-53
2022/01/28 15:25:57;;;;;;;7.40;5.50;;;;;;;;;;5024572;28;20339;-52
2022/01/28 15:28:24;;;;;;;7.75;5.82;;;;;;;;;;5024700;28;20103;-52
2022/01/28 15:36:17;;;;;;;7.40;5.30;;;;;;;;;;5025318;28;20083;-53
2022/01/28 15:38:43;;;;;;;7.47;5.22;;;;;;;;;;5024743;28;20314;-53
2022/01/28 15:41:08;;;;;;;7.63;5.40;;;;;;;;;;5024677;28;20032;-53
2022/01/28 15:43:33;;;;;;;7.50;5.28;;;;;;;;;;5024343;28;20276;-53
2022/01/28 15:45:59;;;;;;;7.90;5.90;;;;;;;;;;5024171;28;20039;-53
2022/01/28 15:48:24;;;;;;;7.97;5.87;;;;;;;;;;5023080;28;20028;-53
2022/01/28 15:50:52;;;;;;;7.18;5.68;;;;;;;;;;5024636;28;20260;-53
2022/01/28 15:53:17;;;;;;;7.28;5.22;;;;;;;;;;5024653;28;20038;-53
2022/01/28 15:55:43;;;;;;;7.55;5.35;;;;;;;;;;5024435;28;20471;-52
2022/01/28 15:58:08;;;;;;;7.35;5.60;;;;;;;;;;5023576;28;20041;-51
2022/01/28 16:00:33;;;;;;;7.27;5.37;;;;;;;;;;5023730;28;20021;-52
2022/01/28 16:02:58;;;;;;;6.63;4.90;;;;;;;;;;5023822;28;20748;-53
2022/01/28 16:05:24;;;;;;;6.37;4.70;;;;;;;;;;5025338;28;20049;-52
2022/01/28 16:07:49;;;;;;;6.87;5.10;;;;;;;;;;5023473;28;20804;-53
2022/01/28 16:10:20;;;;;;;7.40;5.30;;;;;;;;;;5023765;28;20294;-52
2022/01/28 16:13:01;;;;;;;5.78;4.45;;;;;;;;;;5023758;28;20275;-53
2022/01/28 16:15:39;;;;;;;6.57;4.63;;;;;;;;;;5023933;28;20120;-52
2022/01/28 16:18:04;;;;;;;7.45;4.60;;;;;;;;;;5023211;28;20741;-54
2022/01/28 16:20:30;;;;;;;6.97;4.63;;;;;;;;;;5023017;28;20035;-53
2022/01/28 16:22:56;;;;;;;5.93;4.90;;;;;;;;;;5022425;28;20017;-53
2022/01/28 16:25:21;;;;;;;5.93;4.43;;;;;;;;;;5024108;28;20033;-55